Time;durP1;ratioP1;P1;durP2;ratioP2;P2;SDS_P1;SDS_P2;PMS_P1;PMS_P2;Temp;Humidity;BMP_temperature;BMP_pressure;BME280_temperature;BME280_humidity;BME280_pressure;Samples;Min_cycle;Max_cycle;Signal;HPM_P1;HPM_P2
2024/04/15 00:01:00;;;;;;;13.40;8.20;;;;;;;;;;5429202;26;20659;-59
2024/04/15 00:03:26;;;;;;;13.52;8.50;;;;;;;;;;5451175;26;20042;-56
2024/04/15 00:05:52;;;;;;;13.75;9.10;;;;;;;;;;5451487;26;20787;-56
2024/04/15 00:08:18;;;;;;;13.88;9.63;;;;;;;;;;5451415;26;19995;-56
2024/04/15 00:10:44;;;;;;;13.88;9.27;;;;;;;;;;5450992;26;19995;-57
2024/04/15 00:13:10;;;;;;;13.70;8.90;;;;;;;;;;5452371;26;19991;-54
2024/04/15 00:15:35;;;;;;;13.88;9.48;;;;;;;;;;5450286;26;20027;-58
2024/04/15 00:18:02;;;;;;;14.10;10.10;;;;;;;;;;5451858;26;20005;-58
2024/04/15 00:20:29;;;;;;;14.10;10.13;;;;;;;;;;5450638;26;20068;-59
2024/04/15 00:22:55;;;;;;;14.30;10.70;;;;;;;;;;5450093;26;19994;-54
2024/04/15 00:25:21;;;;;;;14.27;10.70;;;;;;;;;;5450396;26;20067;-53
2024/04/15 00:27:47;;;;;;;14.30;10.60;;;;;;;;;;5450071;26;20007;-58
2024/04/15 00:30:13;;;;;;;14.18;10.38;;;;;;;;;;5450218;26;19995;-59
2024/04/15 00:32:39;;;;;;;14.18;10.30;;;;;;;;;;5451151;26;20472;-57
2024/04/15 00:35:05;;;;;;;14.10;10.27;;;;;;;;;;5450122;26;20001;-56
2024/04/15 00:37:32;;;;;;;14.15;10.27;;;;;;;;;;5450728;26;20005;-59
2024/04/15 00:39:58;;;;;;;14.70;11.90;;;;;;;;;;5449083;26;20002;-58
2024/04/15 00:42:24;;;;;;;14.80;12.02;;;;;;;;;;5450582;26;20006;-60
2024/04/15 00:44:51;;;;;;;14.98;12.75;;;;;;;;;;5450954;26;19991;-58
2024/04/15 00:47:18;;;;;;;15.10;13.00;;;;;;;;;;5450459;26;20007;-58
2024/04/15 00:49:44;;;;;;;14.90;12.63;;;;;;;;;;5450421;26;20337;-62
2024/04/15 00:52:11;;;;;;;15.07;13.10;;;;;;;;;;5450331;26;19995;-61
2024/04/15 00:54:39;;;;;;;15.10;12.97;;;;;;;;;;5449240;26;20067;-60
2024/04/15 00:57:06;;;;;;;15.05;13.05;;;;;;;;;;5449876;26;20005;-60
2024/04/15 00:59:34;;;;;;;14.82;12.43;;;;;;;;;;5450103;26;19991;-60
2024/04/15 01:02:00;;;;;;;15.40;13.05;;;;;;;;;;5450415;26;19995;-61
2024/04/15 01:04:26;;;;;;;14.70;11.93;;;;;;;;;;5450320;26;20077;-59
2024/04/15 01:06:52;;;;;;;14.50;11.63;;;;;;;;;;5449929;26;20042;-57
2024/04/15 01:09:18;;;;;;;14.43;11.30;;;;;;;;;;5450023;26;20073;-59
2024/04/15 01:11:44;;;;;;;14.40;11.15;;;;;;;;;;5450140;26;20092;-58
2024/04/15 01:14:10;;;;;;;14.30;10.90;;;;;;;;;;5449669;26;20005;-59
2024/04/15 01:16:37;;;;;;;14.18;10.77;;;;;;;;;;5449940;26;19995;-59
2024/04/15 01:19:03;;;;;;;14.40;10.90;;;;;;;;;;5449643;26;20365;-62
2024/04/15 01:21:29;;;;;;;14.25;10.60;;;;;;;;;;5450078;26;20364;-56
2024/04/15 01:23:56;;;;;;;14.25;10.85;;;;;;;;;;5449566;26;19995;-59
2024/04/15 01:26:22;;;;;;;14.30;10.88;;;;;;;;;;5449872;26;20042;-57
2024/04/15 01:28:48;;;;;;;14.38;11.07;;;;;;;;;;5449413;26;19995;-60
2024/04/15 01:31:14;;;;;;;14.25;10.77;;;;;;;;;;5450364;26;19990;-58
2024/04/15 01:33:40;;;;;;;14.27;10.70;;;;;;;;;;5450096;26;20067;-56
2024/04/15 01:36:06;;;;;;;14.13;10.32;;;;;;;;;;5449677;26;20309;-61
2024/04/15 01:38:32;;;;;;;14.27;10.45;;;;;;;;;;5447873;26;19987;-58
2024/04/15 01:40:58;;;;;;;14.10;10.30;;;;;;;;;;5447645;26;20010;-60
2024/04/15 01:43:24;;;;;;;14.07;10.13;;;;;;;;;;5449508;26;20480;-60
2024/04/15 01:45:50;;;;;;;14.15;10.40;;;;;;;;;;5449304;26;20298;-55
2024/04/15 01:48:16;;;;;;;14.15;10.35;;;;;;;;;;5447202;26;19991;-60
2024/04/15 01:50:42;;;;;;;14.35;10.93;;;;;;;;;;5449311;26;19995;-61
2024/04/15 01:53:11;;;;;;;13.95;10.10;;;;;;;;;;5449167;26;19999;-58
2024/04/15 01:55:37;;;;;;;;;;;;;;;;;;5449962;26;20010;-59
2024/04/15 01:58:03;;;;;;;14.25;10.80;;;;;;;;;;5449259;26;20366;-61
2024/04/15 02:00:28;;;;;;;14.13;10.63;;;;;;;;;;5449314;26;20010;-62
2024/04/15 02:02:54;;;;;;;14.82;12.13;;;;;;;;;;5449907;26;19994;-61
2024/04/15 02:05:20;;;;;;;14.38;11.00;;;;;;;;;;5449575;26;20005;-60
2024/04/15 02:07:48;;;;;;;14.18;10.45;;;;;;;;;;5449187;26;20067;-60
2024/04/15 02:10:14;;;;;;;14.25;10.90;;;;;;;;;;5449302;26;19994;-61
2024/04/15 02:12:40;;;;;;;14.32;10.90;;;;;;;;;;5448964;26;20444;-60
2024/04/15 02:15:06;;;;;;;14.90;12.32;;;;;;;;;;5448967;26;20001;-58
2024/04/15 02:17:32;;;;;;;14.60;11.70;;;;;;;;;;5449237;26;19999;-58
2024/04/15 02:19:58;;;;;;;14.70;11.90;;;;;;;;;;5448652;26;20002;-55
2024/04/15 02:22:24;;;;;;;14.70;12.10;;;;;;;;;;5448601;26;20037;-60
2024/04/15 02:24:50;;;;;;;14.63;11.82;;;;;;;;;;5448240;26;20009;-57
2024/04/15 02:27:16;;;;;;;14.77;12.10;;;;;;;;;;5448844;26;20485;-60
2024/04/15 02:29:42;;;;;;;14.50;11.27;;;;;;;;;;5448909;26;19987;-57
2024/04/15 02:32:08;;;;;;;14.60;11.60;;;;;;;;;;5448790;26;19995;-56
2024/04/15 02:34:34;;;;;;;15.88;11.48;;;;;;;;;;5448478;26;19994;-57
2024/04/15 02:37:00;;;;;;;14.30;10.90;;;;;;;;;;5448567;26;19991;-60
2024/04/15 02:39:26;;;;;;;14.10;10.32;;;;;;;;;;5448714;26;20048;-59
2024/04/15 02:41:52;;;;;;;14.05;10.15;;;;;;;;;;5448631;26;20456;-59
2024/04/15 02:44:18;;;;;;;14.00;10.10;;;;;;;;;;5448586;26;19991;-57
2024/04/15 02:46:44;;;;;;;13.93;9.73;;;;;;;;;;5416714;26;20637;-59
2024/04/15 02:49:10;;;;;;;14.00;9.80;;;;;;;;;;5412601;26;19992;-59
2024/04/15 02:51:36;;;;;;;13.80;9.30;;;;;;;;;;5412766;26;19991;-58
2024/04/15 02:54:02;;;;;;;13.70;9.15;;;;;;;;;;5412079;26;19992;-59
2024/04/15 02:56:28;;;;;;;13.68;9.07;;;;;;;;;;5412536;26;20413;-61
2024/04/15 02:58:54;;;;;;;13.82;9.35;;;;;;;;;;5414048;26;19999;-62
2024/04/15 03:01:20;;;;;;;13.77;9.23;;;;;;;;;;5416381;26;20376;-60
2024/04/15 03:03:46;;;;;;;13.77;9.10;;;;;;;;;;5415836;26;19991;-58
2024/04/15 03:06:12;;;;;;;14.50;10.13;;;;;;;;;;5415770;26;20002;-60
2024/04/15 03:08:39;;;;;;;14.05;9.27;;;;;;;;;;5415931;26;19996;-61
2024/04/15 03:11:09;;;;;;;13.65;9.10;;;;;;;;;;5415668;26;20384;-58
2024/04/15 03:13:35;;;;;;;13.68;9.00;;;;;;;;;;5415523;26;20010;-59
2024/04/15 03:16:01;;;;;;;15.00;11.25;;;;;;;;;;5416022;26;20449;-59
2024/04/15 03:18:27;;;;;;;13.70;9.07;;;;;;;;;;5415675;26;20065;-55
2024/04/15 03:20:53;;;;;;;14.10;9.35;;;;;;;;;;5415631;26;19999;-59
2024/04/15 03:23:19;;;;;;;13.50;8.32;;;;;;;;;;5415535;26;20442;-60
2024/04/15 03:25:45;;;;;;;13.50;8.38;;;;;;;;;;5415629;26;19999;-59
2024/04/15 03:28:11;;;;;;;13.55;8.68;;;;;;;;;;5415553;26;20068;-57
2024/04/15 03:30:37;;;;;;;14.85;9.13;;;;;;;;;;5415313;26;20393;-57
2024/04/15 03:33:04;;;;;;;15.13;11.88;;;;;;;;;;5415246;26;20010;-58
2024/04/15 03:35:30;;;;;;;13.45;8.15;;;;;;;;;;5413258;26;20089;-59
2024/04/15 03:37:56;;;;;;;13.10;8.07;;;;;;;;;;5414788;26;19991;-60
2024/04/15 03:40:22;;;;;;;14.07;8.48;;;;;;;;;;5414966;26;20569;-61
2024/04/15 03:42:48;;;;;;;13.10;8.00;;;;;;;;;;5414940;26;20038;-57
2024/04/15 03:45:14;;;;;;;13.23;7.97;;;;;;;;;;5415290;26;19995;-54
2024/04/15 03:47:41;;;;;;;16.05;9.35;;;;;;;;;;5414655;26;20014;-60
2024/04/15 03:50:07;;;;;;;13.35;8.02;;;;;;;;;;5413132;26;20006;-52
2024/04/15 03:52:33;;;;;;;13.52;8.15;;;;;;;;;;5414937;26;20000;-61
2024/04/15 03:54:59;;;;;;;13.50;8.30;;;;;;;;;;5415007;26;19996;-57
2024/04/15 03:57:25;;;;;;;13.35;8.02;;;;;;;;;;5415549;26;20358;-58
2024/04/15 03:59:50;;;;;;;13.50;8.40;;;;;;;;;;5415458;26;19991;-58
2024/04/15 04:02:16;;;;;;;13.30;8.02;;;;;;;;;;5412808;26;20049;-57
2024/04/15 04:04:43;;;;;;;15.15;9.85;;;;;;;;;;5413991;26;20419;-57
2024/04/15 04:07:08;;;;;;;13.10;7.80;;;;;;;;;;5414568;26;20033;-59
2024/04/15 04:09:34;;;;;;;13.32;8.00;;;;;;;;;;5414648;26;20429;-63
2024/04/15 04:12:00;;;;;;;12.75;7.47;;;;;;;;;;5412904;26;20341;-58
2024/04/15 04:14:28;;;;;;;13.50;8.20;;;;;;;;;;5412704;26;19991;-54
2024/04/15 04:16:54;;;;;;;13.15;7.75;;;;;;;;;;5407164;26;20507;-58
2024/04/15 04:19:25;;;;;;;13.45;8.10;;;;;;;;;;5410819;26;19999;-57
2024/04/15 04:21:51;;;;;;;13.10;7.70;;;;;;;;;;5414302;26;20101;-59
2024/04/15 04:24:17;;;;;;;13.32;7.93;;;;;;;;;;5414594;26;20519;-59
2024/04/15 04:26:43;;;;;;;13.35;7.88;;;;;;;;;;5415073;26;20308;-55
2024/04/15 04:29:09;;;;;;;13.20;7.80;;;;;;;;;;5414299;26;20002;-59
2024/04/15 04:31:37;;;;;;;13.30;7.90;;;;;;;;;;5414378;26;19988;-60
2024/04/15 04:34:03;;;;;;;14.50;8.30;;;;;;;;;;5414022;26;20505;-59
2024/04/15 04:36:29;;;;;;;13.07;7.60;;;;;;;;;;5412553;26;20498;-58
2024/04/15 04:38:55;;;;;;;13.60;8.85;;;;;;;;;;5414099;26;19999;-59
2024/04/15 04:41:21;;;;;;;12.75;7.45;;;;;;;;;;5412159;26;20942;-53
2024/04/15 04:43:47;;;;;;;12.95;7.88;;;;;;;;;;5413542;26;19996;-59
2024/04/15 04:46:13;;;;;;;13.02;8.00;;;;;;;;;;5414165;26;19987;-56
2024/04/15 04:48:40;;;;;;;12.48;7.40;;;;;;;;;;5413854;26;20472;-57
2024/04/15 04:51:06;;;;;;;13.23;8.00;;;;;;;;;;5413889;26;20003;-60
2024/04/15 04:53:32;;;;;;;12.60;7.40;;;;;;;;;;5414282;26;20015;-59
2024/04/15 04:56:07;;;;;;;12.82;7.63;;;;;;;;;;5414609;26;20011;-58
2024/04/15 04:58:33;;;;;;;12.88;7.53;;;;;;;;;;5414100;26;19992;-56
2024/04/15 05:01:09;;;;;;;12.90;7.60;;;;;;;;;;5413989;26;20039;-59
2024/04/15 05:03:35;;;;;;;13.10;7.70;;;;;;;;;;5413723;26;20442;-57
2024/04/15 05:06:04;;;;;;;13.13;7.70;;;;;;;;;;5413953;26;20005;-57
2024/04/15 05:08:30;;;;;;;13.20;7.80;;;;;;;;;;5413759;26;20361;-57
2024/04/15 05:10:56;;;;;;;13.25;7.88;;;;;;;;;;5413504;26;20007;-58
2024/04/15 05:13:22;;;;;;;12.90;7.60;;;;;;;;;;5413225;26;20448;-60
2024/04/15 05:15:48;;;;;;;13.70;9.05;;;;;;;;;;5413523;26;20125;-58
2024/04/15 05:18:14;;;;;;;13.07;7.68;;;;;;;;;;5413465;26;19999;-59
2024/04/15 05:20:40;;;;;;;13.13;7.68;;;;;;;;;;5412548;26;20018;-54
2024/04/15 05:23:05;;;;;;;14.98;8.88;;;;;;;;;;5413576;26;20425;-57
2024/04/15 05:25:31;;;;;;;13.25;7.90;;;;;;;;;;5414915;26;20078;-61
2024/04/15 05:27:57;;;;;;;13.30;7.90;;;;;;;;;;5413719;26;20410;-58
2024/04/15 05:30:23;;;;;;;12.57;7.38;;;;;;;;;;5413346;26;19992;-59
2024/04/15 05:32:49;;;;;;;13.18;7.68;;;;;;;;;;5413433;26;20042;-58
2024/04/15 05:35:15;;;;;;;12.82;7.53;;;;;;;;;;5411974;26;19995;-60
2024/04/15 05:37:41;;;;;;;12.80;7.60;;;;;;;;;;5412250;26;20007;-61
2024/04/15 05:40:07;;;;;;;12.82;7.50;;;;;;;;;;5412490;26;20015;-62
2024/04/15 05:42:33;;;;;;;13.00;7.70;;;;;;;;;;5412745;26;19999;-59
2024/04/15 05:44:59;;;;;;;13.13;7.88;;;;;;;;;;5412671;26;20010;-55
2024/04/15 05:47:25;;;;;;;12.93;7.60;;;;;;;;;;5407691;26;20011;-60
2024/04/15 05:49:51;;;;;;;12.88;8.30;;;;;;;;;;5412213;26;20003;-60
2024/04/15 05:52:17;;;;;;;12.30;7.20;;;;;;;;;;5412607;26;20003;-61
2024/04/15 05:54:43;;;;;;;12.82;7.55;;;;;;;;;;5412159;26;19995;-58
2024/04/15 05:57:09;;;;;;;14.40;9.55;;;;;;;;;;5412466;26;19995;-58
2024/04/15 05:59:35;;;;;;;13.70;8.75;;;;;;;;;;5412735;26;19995;-59
2024/04/15 06:02:01;;;;;;;13.85;9.05;;;;;;;;;;5412445;26;20134;-58
2024/04/15 06:04:27;;;;;;;14.75;9.38;;;;;;;;;;5412057;26;19999;-56
2024/04/15 06:06:53;;;;;;;13.02;7.90;;;;;;;;;;5412706;26;20006;-55
2024/04/15 06:09:20;;;;;;;12.95;7.70;;;;;;;;;;5412689;26;20007;-59
2024/04/15 06:11:46;;;;;;;13.20;8.07;;;;;;;;;;5410470;26;19991;-57
2024/04/15 06:14:12;;;;;;;13.10;7.80;;;;;;;;;;5412649;26;19996;-59
2024/04/15 06:16:38;;;;;;;13.50;8.60;;;;;;;;;;5412875;26;20006;-63
2024/04/15 06:19:04;;;;;;;15.55;10.25;;;;;;;;;;5411174;26;20007;-63
2024/04/15 06:21:30;;;;;;;13.40;8.27;;;;;;;;;;5412862;26;19992;-58
2024/04/15 06:23:56;;;;;;;13.27;7.90;;;;;;;;;;5412020;26;19991;-61
2024/04/15 06:26:22;;;;;;;16.05;10.88;;;;;;;;;;5412081;26;20034;-61
2024/04/15 06:28:48;;;;;;;13.80;9.25;;;;;;;;;;5412146;26;20000;-60
2024/04/15 06:31:14;;;;;;;12.95;7.65;;;;;;;;;;5411485;26;20461;-61
2024/04/15 06:33:40;;;;;;;14.23;9.25;;;;;;;;;;5412745;26;20000;-60
2024/04/15 06:36:06;;;;;;;13.10;7.80;;;;;;;;;;5415161;26;19995;-59
2024/04/15 06:38:32;;;;;;;14.48;8.23;;;;;;;;;;5415399;26;20015;-58
2024/04/15 06:40:59;;;;;;;14.80;8.82;;;;;;;;;;5415210;26;20101;-57
2024/04/15 06:43:25;;;;;;;13.50;8.30;;;;;;;;;;5414287;26;19999;-55
2024/04/15 06:45:51;;;;;;;13.05;7.78;;;;;;;;;;5413604;26;20070;-58
2024/04/15 06:48:18;;;;;;;13.35;8.00;;;;;;;;;;5414669;26;20007;-60
2024/04/15 06:50:45;;;;;;;13.60;8.55;;;;;;;;;;5415357;26;20065;-58
2024/04/15 06:53:11;;;;;;;13.32;8.00;;;;;;;;;;5414109;26;20385;-55
2024/04/15 06:55:37;;;;;;;12.98;7.65;;;;;;;;;;5414842;26;20014;-60
2024/04/15 06:58:03;;;;;;;13.10;7.70;;;;;;;;;;5414796;26;20009;-57
2024/04/15 07:00:29;;;;;;;13.23;7.78;;;;;;;;;;5415187;26;19996;-61
2024/04/15 07:02:55;;;;;;;13.25;7.90;;;;;;;;;;5412814;26;20468;-58
2024/04/15 07:05:21;;;;;;;13.40;8.00;;;;;;;;;;5415438;26;19992;-60
2024/04/15 07:07:47;;;;;;;13.60;8.95;;;;;;;;;;5415473;26;20383;-59
2024/04/15 07:10:14;;;;;;;12.95;7.53;;;;;;;;;;5415310;26;19995;-60
2024/04/15 07:12:40;;;;;;;12.60;7.43;;;;;;;;;;5415302;26;19996;-54
2024/04/15 07:15:06;;;;;;;12.77;7.43;;;;;;;;;;5415117;26;20003;-59
2024/04/15 07:17:32;;;;;;;13.00;7.78;;;;;;;;;;5415803;26;20341;-58
2024/04/15 07:19:58;;;;;;;13.40;8.00;;;;;;;;;;5415435;26;19999;-61
2024/04/15 07:22:24;;;;;;;13.13;8.00;;;;;;;;;;5415705;26;20011;-61
2024/04/15 07:24:50;;;;;;;12.23;7.10;;;;;;;;;;5412954;26;20002;-57
2024/04/15 07:27:16;;;;;;;13.02;8.27;;;;;;;;;;5414898;26;19999;-61
2024/04/15 07:29:42;;;;;;;12.50;7.30;;;;;;;;;;5414677;26;20068;-60
2024/04/15 07:32:08;;;;;;;12.45;7.30;;;;;;;;;;5412946;26;20007;-60
2024/04/15 07:34:34;;;;;;;11.77;6.90;;;;;;;;;;5414905;26;20403;-60
2024/04/15 07:37:01;;;;;;;12.10;7.20;;;;;;;;;;5415017;26;20003;-61
2024/04/15 07:39:27;;;;;;;12.63;7.30;;;;;;;;;;5415078;26;19999;-58
2024/04/15 07:41:53;;;;;;;12.60;7.45;;;;;;;;;;5414870;26;19995;-62
2024/04/15 07:44:19;;;;;;;11.88;7.00;;;;;;;;;;5414729;26;20011;-62
2024/04/15 07:46:45;;;;;;;15.52;10.10;;;;;;;;;;5415791;26;19991;-57
2024/04/15 07:49:11;;;;;;;11.60;6.80;;;;;;;;;;5412791;26;20010;-62
2024/04/15 07:51:38;;;;;;;12.50;7.88;;;;;;;;;;5415222;26;20004;-60
2024/04/15 07:54:04;;;;;;;13.80;8.25;;;;;;;;;;5414608;26;19999;-55
2024/04/15 07:56:30;;;;;;;16.63;7.82;;;;;;;;;;5415040;26;20474;-66
2024/04/15 07:58:56;;;;;;;13.07;8.00;;;;;;;;;;5414522;26;20024;-62
2024/04/15 08:01:22;;;;;;;12.88;7.47;;;;;;;;;;5414534;26;19995;-64
2024/04/15 08:03:47;;;;;;;12.55;7.40;;;;;;;;;;5414462;26;19992;-63
2024/04/15 08:06:13;;;;;;;14.55;9.25;;;;;;;;;;5414141;26;20003;-63
2024/04/15 08:08:39;;;;;;;13.10;7.90;;;;;;;;;;5414016;26;20105;-62
2024/04/15 08:11:06;;;;;;;13.57;8.35;;;;;;;;;;5414838;26;20025;-63
2024/04/15 08:13:32;;;;;;;13.23;8.07;;;;;;;;;;5414245;26;20015;-63
2024/04/15 08:15:58;;;;;;;13.00;8.10;;;;;;;;;;5414799;26;20036;-63
2024/04/15 08:18:24;;;;;;;13.20;7.55;;;;;;;;;;5414052;26;20453;-63
2024/04/15 08:20:54;;;;;;;13.38;8.32;;;;;;;;;;5414382;26;19992;-62
2024/04/15 08:23:20;;;;;;;13.95;8.70;;;;;;;;;;5413882;26;19995;-62
2024/04/15 08:25:51;;;;;;;14.32;9.10;;;;;;;;;;5413948;26;19995;-61
2024/04/15 08:28:17;;;;;;;13.45;8.13;;;;;;;;;;5413561;26;20002;-58
2024/04/15 08:30:43;;;;;;;14.00;8.60;;;;;;;;;;5413316;26;20507;-60
2024/04/15 08:33:09;;;;;;;14.00;9.55;;;;;;;;;;5413525;26;20003;-61
2024/04/15 08:35:35;;;;;;;13.82;9.30;;;;;;;;;;5413619;26;20002;-60
2024/04/15 08:38:01;;;;;;;13.85;9.35;;;;;;;;;;5409821;26;20010;-64
2024/04/15 08:40:27;;;;;;;14.00;9.73;;;;;;;;;;5425624;26;20079;-63
2024/04/15 08:42:53;;;;;;;14.20;9.60;;;;;;;;;;5447770;26;19994;-62
2024/04/15 08:45:23;;;;;;;16.05;10.73;;;;;;;;;;5450635;26;20464;-65
2024/04/15 08:47:53;;;;;;;13.95;9.75;;;;;;;;;;5449883;26;19998;-60
2024/04/15 08:50:23;;;;;;;15.05;10.20;;;;;;;;;;5436914;26;20004;-63
2024/04/15 08:52:49;;;;;;;14.70;10.60;;;;;;;;;;5414061;26;20378;-63
2024/04/15 08:55:15;;;;;;;16.05;11.85;;;;;;;;;;5413991;26;19996;-63
2024/04/15 08:57:42;;;;;;;14.02;9.98;;;;;;;;;;5413279;26;20101;-63
2024/04/15 09:00:09;;;;;;;15.95;10.00;;;;;;;;;;5412555;26;19995;-63
2024/04/15 09:02:35;;;;;;;14.15;10.20;;;;;;;;;;5411411;26;19999;-63
2024/04/15 09:05:01;;;;;;;14.50;10.60;;;;;;;;;;5414103;26;20614;-61
2024/04/15 09:07:27;;;;;;;14.20;10.30;;;;;;;;;;5414290;26;19999;-62
2024/04/15 09:09:53;;;;;;;14.00;9.88;;;;;;;;;;5414107;26;20452;-62
2024/04/15 09:12:19;;;;;;;16.77;14.70;;;;;;;;;;5414223;26;19995;-62
2024/04/15 09:14:45;;;;;;;14.40;10.20;;;;;;;;;;5412603;26;20481;-62
2024/04/15 09:17:11;;;;;;;14.27;10.07;;;;;;;;;;5413881;26;20005;-62
2024/04/15 09:19:41;;;;;;;13.93;9.57;;;;;;;;;;5412400;26;20006;-62
2024/04/15 09:22:07;;;;;;;16.08;12.18;;;;;;;;;;5414266;26;19988;-63
2024/04/15 09:24:34;;;;;;;13.90;9.82;;;;;;;;;;5413793;26;20013;-62
2024/04/15 09:27:00;;;;;;;13.90;9.50;;;;;;;;;;5412325;26;20382;-59
2024/04/15 09:29:26;;;;;;;13.80;9.23;;;;;;;;;;5413180;26;19991;-63
2024/04/15 09:31:52;;;;;;;14.55;9.90;;;;;;;;;;5408601;26;20076;-62
2024/04/15 09:34:18;;;;;;;13.90;9.50;;;;;;;;;;5409155;26;20023;-63
2024/04/15 09:36:45;;;;;;;14.70;11.60;;;;;;;;;;5410925;26;20109;-64
2024/04/15 09:39:13;;;;;;;14.80;11.90;;;;;;;;;;5412521;26;19999;-62
2024/04/15 09:41:39;;;;;;;16.92;15.13;;;;;;;;;;5412767;26;19991;-61
2024/04/15 09:44:09;;;;;;;15.90;14.20;;;;;;;;;;5412493;26;19992;-62
2024/04/15 09:46:36;;;;;;;16.13;14.43;;;;;;;;;;5412958;26;20003;-61
2024/04/15 09:49:03;;;;;;;15.85;14.13;;;;;;;;;;5413338;26;19995;-63
2024/04/15 09:51:32;;;;;;;16.10;14.40;;;;;;;;;;5413141;26;20152;-61
2024/04/15 09:54:01;;;;;;;16.30;14.52;;;;;;;;;;5413346;26;20327;-66
2024/04/15 09:56:28;;;;;;;15.90;14.20;;;;;;;;;;5413242;26;20247;-62
2024/04/15 09:58:57;;;;;;;16.30;14.60;;;;;;;;;;5413246;26;20003;-64
2024/04/15 10:01:32;;;;;;;16.30;14.60;;;;;;;;;;5412649;26;20403;-60
2024/04/15 10:04:01;;;;;;;16.17;14.48;;;;;;;;;;5410797;26;20077;-64
2024/04/15 10:06:27;;;;;;;;;;;;;;;;;;5410869;26;19999;-68
2024/04/15 10:08:53;;;;;;;16.15;14.45;;;;;;;;;;5413878;26;20228;-65
2024/04/15 10:11:20;;;;;;;16.52;14.77;;;;;;;;;;5413813;26;20432;-64
2024/04/15 10:13:46;;;;;;;15.20;12.65;;;;;;;;;;5412808;26;19996;-54
2024/04/15 10:16:22;;;;;;;18.05;13.93;;;;;;;;;;5412475;26;20011;-59
2024/04/15 10:18:54;;;;;;;14.70;11.60;;;;;;;;;;5410282;26;20027;-61
2024/04/15 10:21:20;;;;;;;15.00;12.32;;;;;;;;;;5410822;26;20014;-62
2024/04/15 10:23:47;;;;;;;15.27;12.88;;;;;;;;;;5410322;26;20331;-61
2024/04/15 10:26:14;;;;;;;22.23;14.45;;;;;;;;;;5412514;26;20076;-59
2024/04/15 10:28:40;;;;;;;15.20;12.77;;;;;;;;;;5412536;26;20022;-61
2024/04/15 10:31:06;;;;;;;15.95;13.20;;;;;;;;;;5413373;26;19996;-62
2024/04/15 10:33:32;;;;;;;14.90;12.23;;;;;;;;;;5412333;26;20000;-61
2024/04/15 10:35:58;;;;;;;15.50;13.10;;;;;;;;;;5412316;26;19995;-63
2024/04/15 10:38:28;;;;;;;15.00;12.30;;;;;;;;;;5413503;26;19995;-64
2024/04/15 10:40:55;;;;;;;15.10;12.68;;;;;;;;;;5413174;26;20448;-63
2024/04/15 10:43:23;;;;;;;15.40;12.32;;;;;;;;;;5412907;26;20865;-63
2024/04/15 10:45:49;;;;;;;14.70;11.70;;;;;;;;;;5412674;26;20004;-62
2024/04/15 10:48:15;;;;;;;15.20;12.10;;;;;;;;;;5411725;26;19996;-63
2024/04/15 10:50:41;;;;;;;14.70;11.40;;;;;;;;;;5412124;26;20527;-64
2024/04/15 10:53:08;;;;;;;14.50;10.07;;;;;;;;;;5412188;26;20073;-54
2024/04/15 10:55:34;;;;;;;14.05;9.85;;;;;;;;;;5411985;26;19996;-60
2024/04/15 10:58:00;;;;;;;14.50;10.30;;;;;;;;;;5410807;26;20008;-57
2024/04/15 11:00:26;;;;;;;14.02;9.80;;;;;;;;;;5410856;26;19999;-59
2024/04/15 11:02:53;;;;;;;18.42;16.05;;;;;;;;;;5410130;26;19996;-57
2024/04/15 11:05:20;;;;;;;16.42;14.73;;;;;;;;;;5408684;26;19996;-60
2024/04/15 11:07:47;;;;;;;14.48;10.52;;;;;;;;;;5410300;26;20470;-65
2024/04/15 11:10:14;;;;;;;14.40;10.70;;;;;;;;;;5412300;26;19991;-60
2024/04/15 11:12:40;;;;;;;14.00;9.63;;;;;;;;;;5411918;26;20068;-61
2024/04/15 11:15:15;;;;;;;14.00;9.95;;;;;;;;;;5411233;26;20006;-63
2024/04/15 11:17:45;;;;;;;14.15;10.20;;;;;;;;;;5411285;26;20124;-64
2024/04/15 11:20:12;;;;;;;14.20;10.35;;;;;;;;;;5413136;26;20306;-63
2024/04/15 11:22:38;;;;;;;14.02;9.85;;;;;;;;;;5415609;26;20004;-64
2024/04/15 11:25:04;;;;;;;14.30;10.63;;;;;;;;;;5415441;26;20007;-63
2024/04/15 11:30:08;;;;;;;14.10;10.32;;;;;;;;;;5445939;26;20023;-58
2024/04/15 11:32:35;;;;;;;14.07;10.10;;;;;;;;;;5447370;26;19991;-59
2024/04/15 11:35:03;;;;;;;14.15;10.43;;;;;;;;;;5449165;26;20013;-61
2024/04/15 11:37:31;;;;;;;13.98;9.80;;;;;;;;;;5448485;26;20057;-57
2024/04/15 11:39:58;;;;;;;13.98;9.57;;;;;;;;;;5412395;26;19995;-59
2024/04/15 11:42:24;;;;;;;13.90;9.50;;;;;;;;;;5412310;26;20545;-56
2024/04/15 11:44:50;;;;;;;14.00;9.90;;;;;;;;;;5412234;26;20007;-57
2024/04/15 11:47:16;;;;;;;14.10;10.00;;;;;;;;;;5412299;26;19992;-58
2024/04/15 11:49:42;;;;;;;13.95;9.93;;;;;;;;;;5412109;26;20314;-59
2024/04/15 11:52:08;;;;;;;14.95;10.93;;;;;;;;;;5411447;26;20531;-56
2024/04/15 11:54:36;;;;;;;14.70;10.70;;;;;;;;;;5411149;26;20014;-60
2024/04/15 11:57:02;;;;;;;14.32;10.20;;;;;;;;;;5409891;26;20081;-58
2024/04/15 11:59:29;;;;;;;14.13;10.25;;;;;;;;;;5411472;26;20139;-57
2024/04/15 12:01:55;;;;;;;14.00;10.00;;;;;;;;;;5411982;26;19995;-59
2024/04/15 12:04:22;;;;;;;14.20;10.27;;;;;;;;;;5412026;26;20428;-60
2024/04/15 12:06:50;;;;;;;14.10;10.20;;;;;;;;;;5411852;26;20073;-56
2024/04/15 12:09:16;;;;;;;14.50;11.00;;;;;;;;;;5411779;26;20538;-60
2024/04/15 12:11:42;;;;;;;15.20;11.60;;;;;;;;;;5411853;26;20008;-60
2024/04/15 12:14:07;;;;;;;14.13;10.20;;;;;;;;;;5410952;26;20007;-60
2024/04/15 12:16:33;;;;;;;14.07;9.93;;;;;;;;;;5408941;26;20015;-60
2024/04/15 12:18:59;;;;;;;14.00;9.90;;;;;;;;;;5411499;26;20035;-60
2024/04/15 12:21:25;;;;;;;14.13;10.20;;;;;;;;;;5411320;26;19992;-59
2024/04/15 12:23:51;;;;;;;14.18;10.35;;;;;;;;;;5411215;26;20005;-59
2024/04/15 12:26:17;;;;;;;14.40;10.40;;;;;;;;;;5412029;26;19996;-60
2024/04/15 12:28:43;;;;;;;14.40;10.77;;;;;;;;;;5411291;26;19995;-61
2024/04/15 12:31:11;;;;;;;14.30;10.60;;;;;;;;;;5379389;26;20449;-59
2024/04/15 12:33:37;;;;;;;14.60;10.88;;;;;;;;;;5411847;26;20032;-61
2024/04/15 12:36:04;;;;;;;14.10;10.00;;;;;;;;;;5412449;26;19992;-61
2024/04/15 12:38:30;;;;;;;14.07;10.20;;;;;;;;;;5411246;26;20024;-60
2024/04/15 12:40:56;;;;;;;14.20;10.40;;;;;;;;;;5411110;26;20006;-57
2024/04/15 12:43:22;;;;;;;14.20;10.32;;;;;;;;;;5411340;26;20416;-60
2024/04/15 12:45:53;;;;;;;14.30;10.60;;;;;;;;;;5410729;26;19996;-59
2024/04/15 12:48:19;;;;;;;14.30;10.70;;;;;;;;;;5411473;26;20028;-57
2024/04/15 12:50:47;;;;;;;14.38;10.55;;;;;;;;;;5411098;26;20008;-60
2024/04/15 12:53:13;;;;;;;14.57;10.32;;;;;;;;;;5410976;26;20469;-59
2024/04/15 12:55:39;;;;;;;14.30;10.68;;;;;;;;;;5410966;26;20003;-59
2024/04/15 12:58:05;;;;;;;14.10;9.80;;;;;;;;;;5411308;26;20008;-60
2024/04/15 13:00:31;;;;;;;14.00;9.93;;;;;;;;;;5411488;26;20137;-58
2024/04/15 13:02:58;;;;;;;14.07;10.20;;;;;;;;;;5411664;26;19996;-57
2024/04/15 13:05:25;;;;;;;14.40;10.50;;;;;;;;;;5411843;26;20341;-63
2024/04/15 13:07:51;;;;;;;14.07;10.10;;;;;;;;;;5411328;26;19999;-61
2024/04/15 13:10:17;;;;;;;14.30;10.60;;;;;;;;;;5410994;26;20452;-60
2024/04/15 13:12:43;;;;;;;14.20;10.43;;;;;;;;;;5410667;26;19995;-60
2024/04/15 13:15:09;;;;;;;14.60;10.50;;;;;;;;;;5379413;26;20010;-59
2024/04/15 13:17:35;;;;;;;14.30;10.50;;;;;;;;;;5411302;26;20462;-61
2024/04/15 13:20:01;;;;;;;14.48;11.00;;;;;;;;;;5410930;26;20077;-60
2024/04/15 13:22:27;;;;;;;14.10;10.15;;;;;;;;;;5410360;26;20007;-59
2024/04/15 13:24:53;;;;;;;14.80;10.65;;;;;;;;;;5410480;26;19996;-59
2024/04/15 13:27:19;;;;;;;14.95;10.38;;;;;;;;;;5410890;26;19995;-60
2024/04/15 13:29:45;;;;;;;14.20;10.40;;;;;;;;;;5378774;26;20094;-57
2024/04/15 13:32:14;;;;;;;14.40;10.75;;;;;;;;;;5410806;26;20008;-56
2024/04/15 13:34:40;;;;;;;15.30;13.10;;;;;;;;;;5410499;26;20064;-54
2024/04/15 13:37:06;;;;;;;15.80;14.05;;;;;;;;;;5410186;26;20057;-59
2024/04/15 13:39:32;;;;;;;15.23;12.30;;;;;;;;;;5410229;26;20543;-59
2024/04/15 13:41:58;;;;;;;15.10;12.70;;;;;;;;;;5409537;26;19992;-57
2024/04/15 13:44:24;;;;;;;17.73;15.93;;;;;;;;;;5409024;26;20006;-58
2024/04/15 13:46:50;;;;;;;20.63;18.73;;;;;;;;;;5378592;26;20069;-55
2024/04/15 13:49:19;;;;;;;18.88;16.98;;;;;;;;;;5410191;26;20446;-57
2024/04/15 13:51:45;;;;;;;20.15;18.25;;;;;;;;;;5409813;26;19995;-55
2024/04/15 13:54:11;;;;;;;28.63;26.23;;;;;;;;;;5408915;26;20027;-55
2024/04/15 13:56:37;;;;;;;38.10;35.13;;;;;;;;;;5409865;26;20462;-59
2024/04/15 13:59:03;;;;;;;42.80;39.55;;;;;;;;;;5410313;26;20326;-54
2024/04/15 14:01:29;;;;;;;43.47;40.22;;;;;;;;;;5409466;26;20046;-59
2024/04/15 14:03:55;;;;;;;38.80;35.90;;;;;;;;;;5409682;26;19995;-57
2024/04/15 14:06:21;;;;;;;36.15;33.35;;;;;;;;;;5378061;26;19991;-56
2024/04/15 14:08:47;;;;;;;36.13;33.22;;;;;;;;;;5409864;26;20011;-50
2024/04/15 14:11:14;;;;;;;33.10;30.50;;;;;;;;;;5410015;26;19995;-55
2024/04/15 14:13:40;;;;;;;29.50;27.10;;;;;;;;;;5409875;26;19999;-57
2024/04/15 14:16:10;;;;;;;27.70;25.40;;;;;;;;;;5409821;26;20006;-54
2024/04/15 14:18:37;;;;;;;27.55;25.25;;;;;;;;;;5409161;26;19992;-57
2024/04/15 14:21:04;;;;;;;26.63;24.42;;;;;;;;;;5409581;26;20445;-59